createdAt,value
2018-08-10T00:00:16.130Z,18.60
2018-08-10T00:02:44.413Z,18.00
2018-08-10T00:05:12.580Z,18.10
2018-08-10T00:07:40.664Z,19.60
2018-08-10T00:10:10.712Z,20.80
2018-08-10T00:12:38.864Z,19.60
2018-08-10T00:15:07.637Z,19.80
2018-08-10T00:17:36.624Z,20.30
2018-08-10T00:20:06.452Z,19.80
2018-08-10T00:22:34.552Z,22.00
2018-08-10T00:25:02.651Z,22.70
2018-08-10T00:27:30.748Z,23.00
2018-08-10T00:29:58.811Z,23.30
2018-08-10T00:32:26.929Z,24.80
2018-08-10T00:34:55.033Z,23.50
2018-08-10T00:37:23.192Z,22.10
2018-08-10T00:39:51.267Z,20.80
2018-08-10T00:42:19.425Z,18.40
2018-08-10T00:44:47.539Z,20.50
2018-08-10T00:47:15.640Z,19.50
2018-08-10T00:49:43.719Z,18.30
2018-08-10T00:52:11.824Z,18.20
2018-08-10T00:54:39.909Z,18.20
2018-08-10T00:57:08.041Z,18.70
2018-08-10T00:59:36.152Z,19.70
2018-08-10T01:02:04.306Z,20.00
2018-08-10T01:04:32.446Z,19.10
2018-08-10T01:07:00.996Z,22.70
2018-08-10T01:09:29.092Z,23.20
2018-08-10T01:11:57.233Z,22.60
2018-08-10T01:14:25.369Z,23.60
2018-08-10T01:16:53.518Z,22.50
2018-08-10T01:19:21.741Z,19.90
2018-08-10T01:21:49.796Z,23.00
2018-08-10T01:24:17.914Z,21.00
2018-08-10T01:26:46.063Z,21.20
2018-08-10T01:29:14.137Z,21.80
2018-08-10T01:31:42.294Z,21.50
2018-08-10T01:34:10.419Z,21.30
2018-08-10T01:36:38.497Z,22.40
2018-08-10T01:39:08.492Z,22.10
2018-08-10T01:41:36.559Z,22.50
2018-08-10T01:44:04.817Z,21.60
2018-08-10T01:46:32.923Z,22.00
2018-08-10T01:49:01.046Z,19.20
2018-08-10T01:51:29.088Z,18.70
2018-08-10T01:53:57.189Z,17.50
2018-08-10T01:56:25.335Z,17.20
2018-08-10T01:58:53.448Z,17.10
2018-08-10T02:01:21.574Z,17.00
2018-08-10T02:03:49.680Z,16.80
2018-08-10T02:06:17.746Z,17.60
2018-08-10T02:08:45.889Z,16.90
2018-08-10T02:11:14.021Z,16.80
2018-08-10T02:13:42.120Z,17.20
2018-08-10T02:16:10.222Z,17.50
2018-08-10T02:18:38.284Z,18.10
2018-08-10T02:21:06.688Z,18.00
2018-08-10T02:23:58.605Z,18.80
2018-08-10T02:26:37.444Z,17.70
2018-08-10T02:29:25.613Z,17.90
2018-08-10T02:32:07.530Z,18.20
2018-08-10T02:34:37.982Z,19.70
2018-08-10T02:37:06.722Z,18.70
2018-08-10T02:39:35.020Z,18.80
2018-08-10T02:42:03.160Z,18.80
2018-08-10T02:44:31.274Z,19.10
2018-08-10T02:46:59.415Z,19.80
2018-08-10T02:49:27.499Z,19.60
2018-08-10T02:51:55.666Z,19.80
2018-08-10T02:54:23.810Z,20.00
2018-08-10T02:56:51.856Z,19.60
2018-08-10T02:59:21.732Z,21.40
2018-08-10T03:01:49.893Z,21.30
2018-08-10T03:04:17.959Z,20.00
2018-08-10T03:06:46.030Z,19.80
2018-08-10T03:09:14.157Z,19.50
2018-08-10T03:11:42.220Z,20.00
2018-08-10T03:14:10.334Z,20.30
2018-08-10T03:16:38.480Z,19.60
2018-08-10T03:19:06.734Z,19.50
2018-08-10T03:21:34.841Z,18.70
2018-08-10T03:24:02.947Z,18.50
2018-08-10T03:26:31.068Z,18.60
2018-08-10T03:28:59.211Z,18.30
2018-08-10T03:31:27.401Z,18.60
2018-08-10T03:33:55.550Z,18.50
2018-08-10T03:36:23.718Z,19.60
2018-08-10T03:38:51.908Z,19.20
2018-08-10T03:41:19.980Z,18.30
2018-08-10T03:43:48.137Z,18.50
2018-08-10T03:46:16.231Z,18.50
2018-08-10T03:48:44.399Z,18.10
2018-08-10T03:51:12.512Z,19.70
2018-08-10T03:53:40.684Z,18.20
2018-08-10T03:56:08.801Z,18.20
2018-08-10T03:58:36.888Z,19.00
2018-08-10T04:01:04.994Z,18.10
2018-08-10T04:03:33.141Z,18.20
2018-08-10T04:06:01.659Z,19.00
2018-08-10T04:08:29.750Z,18.70
2018-08-10T04:10:57.883Z,18.10
2018-08-10T04:13:26.057Z,19.00
2018-08-10T04:15:54.128Z,18.90
2018-08-10T04:18:22.281Z,18.10
2018-08-10T04:20:50.430Z,18.70
2018-08-10T04:23:18.571Z,18.20
2018-08-10T04:25:46.666Z,18.20
2018-08-10T04:28:14.728Z,18.30
2018-08-10T04:30:42.845Z,19.10
2018-08-10T04:33:10.945Z,18.90
2018-08-10T04:35:39.089Z,18.70
2018-08-10T04:38:07.292Z,19.80
2018-08-10T04:40:35.382Z,19.00
2018-08-10T04:43:03.507Z,19.00
2018-08-10T04:45:31.718Z,20.10
2018-08-10T04:48:01.777Z,22.50
2018-08-10T04:50:30.451Z,20.00
2018-08-10T04:52:58.634Z,20.10
2018-08-10T04:55:26.807Z,19.80
2018-08-10T04:57:54.899Z,19.10
2018-08-10T05:00:23.010Z,19.20
2018-08-10T05:02:51.226Z,21.00
2018-08-10T05:05:19.304Z,18.90
2018-08-10T05:07:47.444Z,17.90
2018-08-10T05:10:15.584Z,18.60
2018-08-10T05:12:43.755Z,17.40
2018-08-10T05:15:12.578Z,17.60
2018-08-10T05:17:40.699Z,17.70
2018-08-10T05:20:10.028Z,17.00
2018-08-10T05:22:38.700Z,16.10
2018-08-10T05:25:07.064Z,15.90
2018-08-10T05:27:35.602Z,15.40
2018-08-10T05:30:04.363Z,14.70
2018-08-10T05:32:32.465Z,14.20
2018-08-10T05:35:00.626Z,15.10
2018-08-10T05:37:28.771Z,16.40
2018-08-10T05:39:56.976Z,15.40
2018-08-10T05:42:25.119Z,15.80
2018-08-10T05:44:53.980Z,15.50
2018-08-10T05:47:22.197Z,15.10
2018-08-10T05:49:50.398Z,15.90
2018-08-10T05:52:18.496Z,16.00
2018-08-10T05:54:46.609Z,14.70
2018-08-10T05:59:49.235Z,15.20
2018-08-10T06:02:17.341Z,14.30
2018-08-10T06:04:45.833Z,14.00
2018-08-10T06:07:14.674Z,14.10
2018-08-10T06:09:42.852Z,14.10
2018-08-10T06:12:10.933Z,14.20
2018-08-10T06:14:39.021Z,14.80
2018-08-10T06:17:07.147Z,13.30
2018-08-10T06:19:35.312Z,13.90
2018-08-10T06:22:03.461Z,14.20
2018-08-10T06:24:31.568Z,14.80
2018-08-10T06:26:59.711Z,14.90
2018-08-10T06:29:28.137Z,15.70
2018-08-10T06:31:56.318Z,15.60
2018-08-10T06:34:24.449Z,15.50
2018-08-10T06:36:52.596Z,15.50
2018-08-10T06:39:20.745Z,15.40
2018-08-10T06:41:48.845Z,16.60
2018-08-10T06:44:17.027Z,16.00
2018-08-10T06:46:45.184Z,16.50
2018-08-10T06:49:13.271Z,17.90
2018-08-10T06:51:41.430Z,18.10
2018-08-10T06:54:09.688Z,17.80
2018-08-10T06:56:37.755Z,16.90
2018-08-10T06:59:05.938Z,17.70
2018-08-10T07:01:34.409Z,17.80
2018-08-10T07:04:06.534Z,17.40
2018-08-10T07:06:49.952Z,18.10
2018-08-10T07:09:18.204Z,20.30
2018-08-10T07:11:46.358Z,19.00
2018-08-10T07:14:14.938Z,17.80
2018-08-10T07:16:43.219Z,21.50
2018-08-10T07:19:11.368Z,21.00
2018-08-10T07:21:39.577Z,19.30
2018-08-10T07:24:07.720Z,20.60
2018-08-10T07:26:35.830Z,25.40
2018-08-10T07:29:04.045Z,21.20
2018-08-10T07:31:32.222Z,21.80
2018-08-10T07:34:00.438Z,21.70
2018-08-10T07:36:28.614Z,23.00
2018-08-10T07:38:56.776Z,24.00
2018-08-10T07:41:24.924Z,24.60
2018-08-10T07:43:53.209Z,20.10
2018-08-10T07:46:21.367Z,20.90
2018-08-10T07:48:50.248Z,20.60
2018-08-10T07:51:20.525Z,19.90
2018-08-10T07:53:49.257Z,18.90
2018-08-10T07:56:18.513Z,21.40
2018-08-10T07:58:46.646Z,19.40
2018-08-10T08:01:14.966Z,18.80
2018-08-10T08:03:43.417Z,18.00
2018-08-10T08:06:11.605Z,18.90
2018-08-10T08:08:40.011Z,19.20
2018-08-10T08:11:08.301Z,19.50
2018-08-10T08:13:36.458Z,18.60
2018-08-10T08:16:05.074Z,18.50
2018-08-10T08:18:33.236Z,17.70
2018-08-10T08:21:06.265Z,18.20
2018-08-10T08:23:34.679Z,19.70
2018-08-10T08:26:03.700Z,18.80
2018-08-10T08:28:32.219Z,18.40
2018-08-10T08:31:01.645Z,18.40
2018-08-10T08:33:29.856Z,18.80
2018-08-10T08:35:58.980Z,23.00
2018-08-10T08:38:39.123Z,22.20
2018-08-10T08:41:08.669Z,20.10
2018-08-10T08:46:08.231Z,22.60
2018-08-10T08:48:39.202Z,22.80
2018-08-10T08:51:09.946Z,21.10
2018-08-10T08:53:38.217Z,18.90
2018-08-10T08:56:07.932Z,19.40
2018-08-10T08:58:36.637Z,19.20
2018-08-10T09:01:05.695Z,18.00
2018-08-10T09:03:45.300Z,15.90
2018-08-10T09:06:13.379Z,16.60
2018-08-10T09:08:54.645Z,16.20
2018-08-10T09:11:22.923Z,14.40
2018-08-10T09:14:38.068Z,13.60
2018-08-10T09:17:06.650Z,12.00
2018-08-10T09:19:34.817Z,10.90
2018-08-10T09:22:02.935Z,12.90
2018-08-10T09:24:31.186Z,12.40
2018-08-10T09:27:00.620Z,11.50
2018-08-10T09:29:28.797Z,12.40
2018-08-10T09:31:57.488Z,11.90
2018-08-10T09:34:26.347Z,12.30
2018-08-10T09:36:54.460Z,13.50
2018-08-10T09:39:22.856Z,13.20
2018-08-10T09:41:50.951Z,12.30
2018-08-10T09:44:19.109Z,13.50
2018-08-10T09:46:47.369Z,13.00
2018-08-10T09:49:15.785Z,13.10
2018-08-10T09:52:14.771Z,12.40
2018-08-10T09:55:24.645Z,11.30
2018-08-10T09:57:54.368Z,12.00
2018-08-10T10:00:27.862Z,11.90
2018-08-10T10:03:29.869Z,12.80
2018-08-10T10:05:59.494Z,11.20
2018-08-10T10:08:27.849Z,10.50
2018-08-10T10:10:56.099Z,11.80
2018-08-10T10:13:24.224Z,11.90
2018-08-10T10:15:52.304Z,12.10
2018-08-10T10:18:20.431Z,12.00
2018-08-10T10:20:48.973Z,11.50
2018-08-10T10:23:17.049Z,11.20
2018-08-10T10:25:45.196Z,11.50
2018-08-10T10:28:13.570Z,11.10
2018-08-10T10:30:41.858Z,10.40
2018-08-10T10:33:10.049Z,9.80
2018-08-10T10:35:38.198Z,10.00
2018-08-10T10:38:06.384Z,10.20
2018-08-10T10:40:34.576Z,9.20
2018-08-10T10:43:02.702Z,9.10
2018-08-10T10:45:30.792Z,9.60
2018-08-10T10:47:58.892Z,9.20
2018-08-10T10:50:27.015Z,8.00
2018-08-10T10:52:55.328Z,9.60
2018-08-10T10:55:23.498Z,8.50
2018-08-10T10:57:51.654Z,8.30
2018-08-10T11:00:20.749Z,7.50
2018-08-10T11:02:49.260Z,8.40
2018-08-10T11:05:17.947Z,8.00
2018-08-10T11:07:46.176Z,7.80
2018-08-10T11:10:15.855Z,6.40
2018-08-10T11:12:44.042Z,7.20
2018-08-10T11:15:13.003Z,5.70
2018-08-10T11:17:41.246Z,6.00
2018-08-10T11:20:10.832Z,4.70
2018-08-10T11:22:39.733Z,3.60
2018-08-10T11:25:10.062Z,3.90
2018-08-10T11:27:38.329Z,4.00
2018-08-10T11:30:07.889Z,4.30
2018-08-10T11:32:36.060Z,5.30
2018-08-10T11:35:04.960Z,5.60
2018-08-10T11:37:33.105Z,5.80
2018-08-10T11:40:01.958Z,4.40
2018-08-10T11:42:31.068Z,3.60
2018-08-10T11:44:59.372Z,3.60
2018-08-10T11:47:28.620Z,3.80
2018-08-10T11:49:56.961Z,4.10
2018-08-10T11:52:25.094Z,5.20
2018-08-10T11:54:53.534Z,4.20
2018-08-10T11:57:21.749Z,4.50
2018-08-10T11:59:49.973Z,4.70
2018-08-10T12:02:19.122Z,4.90
2018-08-10T12:04:47.280Z,5.80
2018-08-10T12:07:15.529Z,5.00
2018-08-10T12:09:43.741Z,4.50
2018-08-10T12:12:12.281Z,4.20
2018-08-10T12:14:40.876Z,4.20
2018-08-10T12:17:09.109Z,5.10
2018-08-10T12:19:37.429Z,4.10
2018-08-10T12:22:05.623Z,4.50
2018-08-10T12:24:33.867Z,4.40
2018-08-10T12:27:02.699Z,4.30
2018-08-10T12:29:30.948Z,5.00
2018-08-10T12:31:59.322Z,4.90
2018-08-10T12:34:27.419Z,5.30
2018-08-10T12:36:56.211Z,3.60
2018-08-10T12:39:24.425Z,3.90
2018-08-10T12:41:52.585Z,4.40
2018-08-10T12:44:20.790Z,2.70
2018-08-10T12:46:49.262Z,2.60
2018-08-10T12:49:17.716Z,3.00
2018-08-10T12:51:46.005Z,2.50
2018-08-10T12:54:14.633Z,4.40
2018-08-10T12:56:42.961Z,2.60
2018-08-10T12:59:11.319Z,3.40
2018-08-10T13:01:40.060Z,3.50
2018-08-10T13:04:08.459Z,4.80
2018-08-10T13:06:36.684Z,5.00
2018-08-10T13:09:08.489Z,3.70
2018-08-10T13:11:37.027Z,3.60
2018-08-10T13:14:05.213Z,3.80
2018-08-10T13:16:33.700Z,4.70
2018-08-10T13:19:02.276Z,3.80
2018-08-10T13:21:30.625Z,2.90
2018-08-10T13:23:59.001Z,4.70
2018-08-10T13:26:27.189Z,3.20
2018-08-10T13:28:55.411Z,2.50
2018-08-10T13:31:23.573Z,2.60
2018-08-10T13:33:52.251Z,4.10
2018-08-10T13:36:20.446Z,3.70
2018-08-10T13:38:48.670Z,3.30
2018-08-10T13:41:16.864Z,3.80
2018-08-10T13:43:45.277Z,3.20
2018-08-10T13:46:13.492Z,2.70
2018-08-10T13:48:41.588Z,3.60
2018-08-10T13:51:09.842Z,2.30
2018-08-10T13:53:37.996Z,2.20
2018-08-10T13:56:06.214Z,1.50
2018-08-10T13:58:34.385Z,1.60
2018-08-10T14:01:02.502Z,1.10
2018-08-10T14:03:30.658Z,1.00
2018-08-10T14:05:58.824Z,1.00
2018-08-10T14:08:27.128Z,1.00
2018-08-10T14:10:55.367Z,1.00
2018-08-10T14:13:23.560Z,1.00
2018-08-10T14:15:51.809Z,1.00
2018-08-10T14:18:20.005Z,1.00
2018-08-10T14:20:48.168Z,1.00
2018-08-10T14:23:16.289Z,1.00
2018-08-10T14:25:44.528Z,1.00
2018-08-10T14:28:12.849Z,1.00
2018-08-10T14:30:41.336Z,1.70
2018-08-10T14:33:09.573Z,1.00
2018-08-10T14:35:37.778Z,1.00
2018-08-10T14:38:06.559Z,1.00
2018-08-10T14:40:34.749Z,5.20
2018-08-10T14:43:02.881Z,7.80
2018-08-10T14:45:31.108Z,8.90
2018-08-10T14:48:00.062Z,9.50
2018-08-10T14:50:28.143Z,10.20
2018-08-10T14:52:56.349Z,10.80
2018-08-10T14:55:24.575Z,11.80
2018-08-10T14:57:52.857Z,12.20
2018-08-10T15:00:21.597Z,12.50
2018-08-10T15:02:50.258Z,12.80
2018-08-10T15:05:18.521Z,12.50
2018-08-10T15:07:47.496Z,13.10
2018-08-10T15:10:16.664Z,13.50
2018-08-10T15:12:46.193Z,14.00
2018-08-10T15:15:17.059Z,13.90
2018-08-10T15:17:46.176Z,14.00
2018-08-10T15:20:18.908Z,14.00
2018-08-10T15:22:47.208Z,13.40
2018-08-10T15:25:15.321Z,13.70
2018-08-10T15:27:44.040Z,14.60
2018-08-10T15:30:15.512Z,14.30
2018-08-10T15:32:45.091Z,14.10
2018-08-10T15:35:14.779Z,13.60
2018-08-10T15:37:43.076Z,13.70
2018-08-10T15:40:16.433Z,13.40
2018-08-10T15:42:44.867Z,12.20
2018-08-10T15:45:15.030Z,11.90
2018-08-10T15:47:43.905Z,11.70
2018-08-10T15:50:12.527Z,12.20
2018-08-10T15:52:42.341Z,12.40
2018-08-10T15:55:11.128Z,11.80
2018-08-10T15:57:39.894Z,11.00
2018-08-10T16:00:13.492Z,10.10
2018-08-10T16:02:41.699Z,10.30
2018-08-10T16:05:11.329Z,10.50
2018-08-10T16:07:40.305Z,9.70
2018-08-10T16:10:09.186Z,9.20
2018-08-10T16:12:38.157Z,8.90
2018-08-10T16:15:08.671Z,8.80
2018-08-10T16:17:37.360Z,9.10
2018-08-10T16:20:07.512Z,9.00
2018-08-10T16:22:35.886Z,9.20
2018-08-10T16:25:05.466Z,9.80
2018-08-10T16:27:34.531Z,9.30
2018-08-10T16:30:02.705Z,8.90
2018-08-10T16:32:31.500Z,8.90
2018-08-10T16:34:59.668Z,9.00
2018-08-10T16:37:28.053Z,8.90
2018-08-10T16:39:56.762Z,8.10
2018-08-10T16:42:24.878Z,7.00
2018-08-10T16:44:53.730Z,6.50
2018-08-10T16:47:21.884Z,7.60
2018-08-10T16:50:53.248Z,7.50
2018-08-10T16:53:21.680Z,7.20
2018-08-10T16:55:50.452Z,7.80
2018-08-10T16:58:19.475Z,8.60
2018-08-10T17:00:48.911Z,8.30
2018-08-10T17:03:17.088Z,8.70
2018-08-10T17:05:45.685Z,10.10
2018-08-10T17:08:14.562Z,11.30
2018-08-10T17:10:42.836Z,12.10
2018-08-10T17:13:11.426Z,12.50
2018-08-10T17:15:39.773Z,12.70
2018-08-10T17:18:08.662Z,12.80
2018-08-10T17:20:37.306Z,13.10
2018-08-10T17:23:06.152Z,12.60
2018-08-10T17:25:35.079Z,13.00
2018-08-10T17:28:04.598Z,13.20
2018-08-10T17:30:32.879Z,13.60
2018-08-10T17:33:01.762Z,13.60
2018-08-10T17:35:31.205Z,14.10
2018-08-10T17:37:59.955Z,14.80
2018-08-10T17:40:28.593Z,15.60
2018-08-10T17:42:56.847Z,15.70
2018-08-10T17:45:25.281Z,16.20
2018-08-10T17:47:53.375Z,16.40
2018-08-10T17:50:22.172Z,16.60
2018-08-10T17:52:52.656Z,17.00
2018-08-10T17:55:23.782Z,18.20
2018-08-10T17:57:52.026Z,19.20
2018-08-10T18:00:22.151Z,20.00
2018-08-10T18:02:50.968Z,21.00
2018-08-10T18:05:19.442Z,21.50
2018-08-10T18:07:48.060Z,22.80
2018-08-10T18:10:17.232Z,24.10
2018-08-10T18:12:45.700Z,25.10
2018-08-10T18:15:17.883Z,26.00
2018-08-10T18:17:46.509Z,26.30
2018-08-10T18:20:17.674Z,26.70
2018-08-10T18:22:47.095Z,27.20
2018-08-10T18:25:16.382Z,27.90
2018-08-10T18:27:44.548Z,28.10
2018-08-10T18:30:16.855Z,28.50
2018-08-10T18:32:45.257Z,29.10
2018-08-10T18:35:13.422Z,29.30
2018-08-10T18:37:42.589Z,29.20
2018-08-10T18:40:12.348Z,29.50
2018-08-10T18:42:41.746Z,29.50
2018-08-10T18:45:10.791Z,30.30
2018-08-10T18:47:39.742Z,29.90
2018-08-10T18:50:09.100Z,30.00
2018-08-10T18:52:37.471Z,30.20
2018-08-10T18:55:05.671Z,30.30
2018-08-10T18:57:34.272Z,30.60
2018-08-10T19:00:02.503Z,31.30
2018-08-10T19:02:30.712Z,31.50
2018-08-10T19:04:58.746Z,31.80
2018-08-10T19:07:27.147Z,32.00
2018-08-10T19:09:55.257Z,32.00
2018-08-10T19:12:23.384Z,32.10
2018-08-10T19:14:51.434Z,32.30
2018-08-10T19:17:19.486Z,32.90
2018-08-10T19:19:47.788Z,33.20
2018-08-10T19:22:15.931Z,32.80
2018-08-10T19:24:44.492Z,33.50
2018-08-10T19:27:12.629Z,33.50
2018-08-10T19:29:40.752Z,33.90
2018-08-10T19:32:08.872Z,34.20
2018-08-10T19:34:36.948Z,35.00
2018-08-10T19:37:05.311Z,34.50
2018-08-10T19:39:33.833Z,34.70
2018-08-10T19:42:01.960Z,34.30
2018-08-10T19:44:30.116Z,34.60
2018-08-10T19:46:58.262Z,34.60
2018-08-10T19:49:26.368Z,34.20
2018-08-10T19:51:54.544Z,34.30
2018-08-10T19:54:22.677Z,34.60
2018-08-10T19:56:51.004Z,34.70
2018-08-10T19:59:19.145Z,35.50
2018-08-10T20:01:47.318Z,34.80
2018-08-10T20:04:15.380Z,34.80
2018-08-10T20:06:43.652Z,34.60
2018-08-10T20:09:12.812Z,35.00
2018-08-10T20:11:41.008Z,34.80
2018-08-10T20:14:09.231Z,34.70
2018-08-10T20:16:37.463Z,35.20
2018-08-10T20:19:05.685Z,34.40
2018-08-10T20:21:33.843Z,34.60
2018-08-10T20:24:02.418Z,34.60
2018-08-10T20:26:31.435Z,35.10
2018-08-10T20:29:00.081Z,34.60
2018-08-10T20:31:28.496Z,35.00
2018-08-10T20:33:56.669Z,34.10
2018-08-10T20:36:24.792Z,34.20
2018-08-10T20:38:53.435Z,33.30
2018-08-10T20:41:21.703Z,34.40
2018-08-10T20:43:49.778Z,33.50
2018-08-10T20:46:18.120Z,32.30
2018-08-10T20:48:46.421Z,32.70
2018-08-10T20:51:14.914Z,33.60
2018-08-10T20:53:43.234Z,34.90
2018-08-10T20:56:11.344Z,33.60
2018-08-10T20:58:39.572Z,34.30
2018-08-10T21:01:07.656Z,35.60
2018-08-10T21:03:36.340Z,34.20
2018-08-10T21:06:04.917Z,33.60
2018-08-10T21:08:33.185Z,36.10
2018-08-10T21:11:01.325Z,37.00
2018-08-10T21:13:29.684Z,33.50
2018-08-10T21:15:57.841Z,36.90
2018-08-10T21:18:26.030Z,35.00
2018-08-10T21:20:54.679Z,34.30
2018-08-10T21:23:22.779Z,37.10
2018-08-10T21:25:50.864Z,37.10
2018-08-10T21:28:18.913Z,37.80
2018-08-10T21:30:47.244Z,38.00
2018-08-10T21:33:15.337Z,39.40
2018-08-10T21:35:43.789Z,40.10
2018-08-10T21:38:12.184Z,40.80
2018-08-10T21:40:40.306Z,41.80
2018-08-10T21:43:10.734Z,42.30
2018-08-10T21:45:39.142Z,42.60
2018-08-10T21:48:07.499Z,44.70
2018-08-10T21:50:35.860Z,44.80
2018-08-10T21:53:04.115Z,45.60
2018-08-10T21:55:32.548Z,45.80
2018-08-10T21:58:01.105Z,45.70
2018-08-10T22:00:46.996Z,45.80
2018-08-10T22:03:15.564Z,48.50
2018-08-10T22:05:43.910Z,50.80
2018-08-10T22:08:12.050Z,50.00
2018-08-10T22:11:23.022Z,49.60
2018-08-10T22:13:56.463Z,45.60
2018-08-10T22:16:30.108Z,49.00
2018-08-10T22:19:03.835Z,49.20
2018-08-10T22:21:31.985Z,48.30
2018-08-10T22:24:00.123Z,50.00
2018-08-10T22:26:28.390Z,49.30
2018-08-10T22:28:56.538Z,46.10
2018-08-10T22:31:24.696Z,47.40
2018-08-10T22:33:52.838Z,46.90
2018-08-10T22:36:20.971Z,48.30
2018-08-10T22:38:49.180Z,48.40
2018-08-10T22:41:17.311Z,46.80
2018-08-10T22:43:45.403Z,44.30
2018-08-10T22:46:13.595Z,43.10
2018-08-10T22:48:41.759Z,46.20
2018-08-10T22:51:09.843Z,45.20
2018-08-10T22:53:38.014Z,45.90
2018-08-10T22:56:06.075Z,44.00
2018-08-10T22:58:34.188Z,43.60
2018-08-10T23:01:02.399Z,46.80
2018-08-10T23:03:30.636Z,48.60
2018-08-10T23:05:58.795Z,47.90
2018-08-10T23:08:27.057Z,49.20
2018-08-10T23:10:55.158Z,49.70
2018-08-10T23:13:23.320Z,50.80
2018-08-10T23:15:51.453Z,50.00
2018-08-10T23:18:19.653Z,51.10
2018-08-10T23:20:47.739Z,48.70
2018-08-10T23:23:15.862Z,48.10
2018-08-10T23:25:43.985Z,48.10
2018-08-10T23:28:12.068Z,49.60
2018-08-10T23:30:40.318Z,50.40
2018-08-10T23:33:08.648Z,49.60
2018-08-10T23:35:36.764Z,51.20
2018-08-10T23:38:04.946Z,53.60
2018-08-10T23:40:33.059Z,53.40
2018-08-10T23:43:01.201Z,54.00
2018-08-10T23:45:29.318Z,55.60
2018-08-10T23:47:57.532Z,56.40
2018-08-10T23:50:25.623Z,56.20
2018-08-10T23:52:53.782Z,56.00
2018-08-10T23:55:21.959Z,56.00
2018-08-10T23:57:50.090Z,57.20
